createdAt,value
2019-05-06T00:00:29.775Z,6.33
2019-05-06T00:02:59.723Z,6.40
2019-05-06T00:05:29.731Z,6.30
2019-05-06T00:07:59.671Z,7.00
2019-05-06T00:10:31.397Z,7.10
2019-05-06T00:13:01.488Z,7.13
2019-05-06T00:15:31.645Z,7.90
2019-05-06T00:18:01.696Z,7.57
2019-05-06T00:20:32.036Z,7.97
2019-05-06T00:23:07.297Z,7.90
2019-05-06T00:25:56.310Z,8.67
2019-05-06T00:28:38.436Z,7.77
2019-05-06T00:31:14.026Z,7.03
2019-05-06T00:33:44.388Z,7.20
2019-05-06T00:36:14.940Z,7.20
2019-05-06T00:38:50.155Z,6.40
2019-05-06T00:41:24.860Z,6.10
2019-05-06T00:43:56.846Z,5.53
2019-05-06T00:46:28.637Z,5.40
2019-05-06T00:48:58.624Z,5.43
2019-05-06T00:51:28.458Z,5.53
2019-05-06T00:54:05.672Z,5.53
2019-05-06T00:56:37.185Z,5.70
2019-05-06T00:59:08.680Z,6.10
2019-05-06T01:01:38.681Z,5.50
2019-05-06T01:04:08.583Z,5.60
2019-05-06T01:06:38.598Z,6.40
2019-05-06T01:09:14.069Z,5.50
2019-05-06T01:11:45.656Z,5.53
2019-05-06T01:14:20.901Z,5.63
2019-05-06T01:16:50.844Z,5.47
2019-05-06T01:19:20.747Z,5.43
2019-05-06T01:21:50.749Z,6.07
2019-05-06T01:24:23.696Z,5.37
2019-05-06T01:26:53.810Z,5.13
2019-05-06T01:29:24.827Z,5.17
2019-05-06T01:31:54.761Z,5.50
2019-05-06T01:34:24.772Z,5.27
2019-05-06T01:36:55.038Z,6.10
2019-05-06T01:39:34.038Z,6.20
2019-05-06T01:42:08.782Z,6.00
2019-05-06T01:44:38.752Z,5.67
2019-05-06T01:47:08.808Z,5.83
2019-05-06T01:49:38.713Z,5.70
2019-05-06T01:52:08.727Z,6.30
2019-05-06T01:54:38.693Z,6.80
2019-05-06T01:57:08.667Z,6.67
2019-05-06T01:59:38.585Z,6.00
2019-05-06T02:02:08.579Z,5.80
2019-05-06T02:04:38.591Z,6.13
2019-05-06T02:07:08.596Z,5.87
2019-05-06T02:09:38.794Z,5.87
2019-05-06T02:12:08.795Z,5.87
2019-05-06T02:14:38.787Z,6.37
2019-05-06T02:17:08.761Z,5.57
2019-05-06T02:19:39.113Z,5.70
2019-05-06T02:22:29.149Z,6.20
2019-05-06T02:25:21.588Z,6.10
2019-05-06T02:27:51.504Z,6.23
2019-05-06T02:30:30.095Z,6.50
2019-05-06T02:33:24.621Z,6.40
2019-05-06T02:36:25.765Z,6.77
2019-05-06T02:38:56.134Z,5.90
2019-05-06T02:41:26.215Z,6.67
2019-05-06T02:43:56.128Z,5.87
2019-05-06T02:46:26.157Z,6.37
2019-05-06T02:49:04.683Z,6.23
2019-05-06T02:51:34.601Z,6.03
2019-05-06T02:54:04.645Z,6.87
2019-05-06T02:56:34.567Z,7.63
2019-05-06T02:59:04.626Z,7.00
2019-05-06T03:01:34.612Z,7.07
2019-05-06T03:04:04.919Z,7.30
2019-05-06T03:06:34.999Z,7.43
2019-05-06T03:09:07.065Z,7.37
2019-05-06T03:11:37.039Z,6.60
2019-05-06T03:14:07.014Z,7.17
2019-05-06T03:16:37.142Z,6.77
2019-05-06T03:19:07.157Z,6.80
2019-05-06T03:21:46.476Z,6.00
2019-05-06T03:24:44.626Z,7.53
2019-05-06T03:27:15.681Z,7.10
2019-05-06T03:29:45.632Z,7.20
2019-05-06T03:32:22.134Z,8.37
2019-05-06T03:35:07.909Z,7.10
2019-05-06T03:37:20.054Z,6.93
2019-05-06T03:39:52.666Z,7.10
2019-05-06T03:42:23.037Z,7.57
2019-05-06T03:44:57.700Z,7.70
2019-05-06T03:47:35.093Z,7.43
2019-05-06T03:50:05.838Z,8.00
2019-05-06T03:52:35.732Z,7.63
2019-05-06T03:55:05.835Z,8.03
2019-05-06T03:57:37.790Z,7.93
2019-05-06T04:00:13.044Z,8.10
2019-05-06T04:02:43.515Z,8.37
2019-05-06T04:05:13.717Z,8.60
2019-05-06T04:07:45.949Z,8.07
2019-05-06T04:10:16.152Z,9.33
2019-05-06T04:12:47.666Z,8.07
2019-05-06T04:15:17.951Z,8.57
2019-05-06T04:17:54.589Z,8.87
2019-05-06T04:20:43.773Z,7.73
2019-05-06T04:23:24.495Z,8.47
2019-05-06T04:26:16.355Z,7.80
2019-05-06T04:28:46.441Z,7.83
2019-05-06T04:31:16.475Z,7.50
2019-05-06T04:34:05.354Z,8.07
2019-05-06T04:36:18.245Z,7.97
2019-05-06T04:38:48.236Z,7.33
2019-05-06T04:41:18.152Z,7.77
2019-05-06T04:46:37.563Z,7.37
2019-05-06T04:49:14.018Z,7.50
2019-05-06T04:51:42.873Z,7.27
2019-05-06T04:54:13.393Z,6.93
2019-05-06T04:56:44.096Z,6.63
2019-05-06T04:59:14.276Z,6.17
2019-05-06T05:01:45.593Z,7.13
2019-05-06T05:04:27.795Z,6.73
2019-05-06T05:06:52.412Z,6.70
2019-05-06T05:09:23.271Z,6.57
2019-05-06T05:12:02.526Z,6.43
2019-05-06T05:14:42.197Z,5.80
2019-05-06T05:17:33.138Z,7.13
2019-05-06T05:20:04.547Z,6.10
2019-05-06T05:22:35.150Z,6.07
2019-05-06T05:25:05.556Z,6.67
2019-05-06T05:27:35.867Z,6.00
2019-05-06T05:30:06.568Z,6.00
2019-05-06T05:32:36.565Z,6.67
2019-05-06T05:35:06.639Z,5.63
2019-05-06T05:37:36.825Z,6.37
2019-05-06T05:40:06.962Z,8.27
2019-05-06T05:43:05.268Z,7.23
2019-05-06T05:45:35.277Z,6.07
2019-05-06T05:48:12.306Z,7.17
2019-05-06T05:50:42.520Z,5.90
2019-05-06T05:53:12.620Z,5.87
2019-05-06T05:55:43.520Z,7.07
2019-05-06T05:58:13.515Z,6.70
2019-05-06T06:00:43.706Z,5.60
2019-05-06T06:03:13.756Z,5.00
2019-05-06T06:05:43.773Z,5.10
2019-05-06T06:08:13.869Z,5.87
2019-05-06T06:10:56.752Z,4.33
2019-05-06T06:13:26.896Z,5.93
2019-05-06T06:16:14.833Z,4.10
2019-05-06T06:19:12.567Z,6.00
2019-05-06T06:21:49.403Z,4.23
2019-05-06T06:24:29.091Z,4.40
2019-05-06T06:26:59.475Z,5.10
2019-05-06T06:29:29.673Z,9.97
2019-05-06T06:32:23.058Z,15.17
2019-05-06T06:35:13.800Z,4.43
2019-05-06T06:37:52.387Z,4.53
2019-05-06T06:40:24.732Z,5.73
2019-05-06T06:42:59.370Z,6.67
2019-05-06T06:45:29.285Z,9.30
2019-05-06T06:47:59.285Z,5.03
2019-05-06T06:50:29.590Z,4.00
2019-05-06T06:52:59.498Z,4.90
2019-05-06T06:55:31.737Z,4.67
2019-05-06T06:58:19.950Z,4.50
2019-05-06T07:01:09.157Z,4.20
2019-05-06T07:03:46.773Z,4.10
2019-05-06T07:06:23.627Z,4.03
2019-05-06T07:08:53.511Z,7.47
2019-05-06T07:11:23.431Z,4.73
2019-05-06T07:13:56.756Z,6.10
2019-05-06T07:16:26.736Z,4.90
2019-05-06T07:18:56.647Z,3.30
2019-05-06T07:21:37.515Z,4.77
2019-05-06T07:24:07.539Z,3.33
2019-05-06T07:26:43.317Z,4.77
2019-05-06T07:29:23.127Z,4.43
2019-05-06T07:31:45.274Z,3.63
2019-05-06T07:34:15.250Z,3.23
2019-05-06T07:36:45.195Z,4.10
2019-05-06T07:39:15.722Z,4.50
2019-05-06T07:41:54.817Z,3.90
2019-05-06T07:44:53.026Z,5.20
2019-05-06T07:47:33.074Z,3.13
2019-05-06T07:50:03.107Z,3.10
2019-05-06T07:52:33.010Z,3.60
2019-05-06T07:55:03.027Z,6.43
2019-05-06T07:57:33.165Z,3.30
2019-05-06T08:00:03.684Z,4.07
2019-05-06T08:02:34.079Z,3.00
2019-05-06T08:05:07.526Z,3.33
2019-05-06T08:07:36.017Z,4.40
2019-05-06T08:10:07.117Z,3.77
2019-05-06T08:12:37.115Z,4.43
2019-05-06T08:15:08.640Z,4.60
2019-05-06T08:17:42.321Z,5.00
2019-05-06T08:20:13.163Z,3.10
2019-05-06T08:23:08.420Z,2.80
2019-05-06T08:25:42.522Z,3.33
2019-05-06T08:28:13.391Z,5.03
2019-05-06T08:30:43.581Z,3.37
2019-05-06T08:33:13.624Z,3.43
2019-05-06T08:35:44.697Z,2.80
2019-05-06T08:38:14.693Z,2.90
2019-05-06T08:40:44.742Z,2.20
2019-05-06T08:43:14.712Z,2.43
2019-05-06T08:45:44.608Z,3.50
2019-05-06T08:48:14.543Z,2.83
2019-05-06T08:51:02.709Z,2.77
2019-05-06T08:53:53.376Z,3.17
2019-05-06T08:56:23.486Z,3.13
2019-05-06T08:58:53.496Z,2.07
2019-05-06T09:01:48.916Z,2.53
2019-05-06T09:04:19.026Z,2.63
2019-05-06T09:06:49.047Z,2.23
2019-05-06T09:09:19.022Z,2.07
2019-05-06T09:11:49.018Z,3.10
2019-05-06T09:14:18.945Z,3.37
2019-05-06T09:16:51.348Z,4.20
2019-05-06T09:19:23.107Z,3.37
2019-05-06T09:21:53.259Z,1.90
2019-05-06T09:24:23.735Z,2.87
2019-05-06T09:26:59.022Z,3.10
2019-05-06T09:29:42.919Z,3.27
2019-05-06T09:32:19.282Z,4.20
2019-05-06T09:34:52.762Z,4.57
2019-05-06T09:37:23.942Z,4.03
2019-05-06T09:39:55.406Z,3.43
2019-05-06T09:42:27.209Z,4.33
2019-05-06T09:44:57.193Z,2.67
2019-05-06T09:47:53.134Z,4.80
2019-05-06T09:50:35.271Z,2.47
2019-05-06T09:53:08.210Z,3.13
2019-05-06T09:56:00.006Z,3.87
2019-05-06T09:58:32.304Z,3.13
2019-05-06T10:01:02.842Z,2.60
2019-05-06T10:03:33.838Z,4.03
2019-05-06T10:06:03.738Z,2.87
2019-05-06T10:08:33.705Z,2.87
2019-05-06T10:11:03.676Z,3.27
2019-05-06T10:13:33.765Z,3.13
2019-05-06T10:16:03.736Z,2.73
2019-05-06T10:18:33.746Z,2.43
2019-05-06T10:21:03.774Z,3.23
2019-05-06T10:23:33.763Z,2.30
2019-05-06T10:26:04.760Z,2.53
2019-05-06T10:28:43.016Z,2.77
2019-05-06T10:31:15.052Z,2.50
2019-05-06T10:34:03.384Z,2.87
2019-05-06T10:37:12.563Z,2.50
2019-05-06T10:39:37.100Z,2.40
2019-05-06T10:42:13.720Z,2.97
2019-05-06T10:44:55.872Z,2.53
2019-05-06T10:47:25.855Z,2.20
2019-05-06T10:49:55.700Z,2.50
2019-05-06T10:52:30.206Z,3.00
2019-05-06T10:55:03.307Z,4.13
2019-05-06T10:57:43.164Z,4.20
2019-05-06T11:00:13.472Z,2.93
2019-05-06T11:03:05.347Z,4.23
2019-05-06T11:05:35.381Z,2.60
2019-05-06T11:08:05.353Z,3.57
2019-05-06T11:10:41.105Z,4.27
2019-05-06T11:13:06.960Z,2.47
2019-05-06T11:15:37.243Z,2.77
2019-05-06T11:18:07.384Z,2.80
2019-05-06T11:20:37.415Z,3.67
2019-05-06T11:23:07.383Z,4.13
2019-05-06T11:25:38.297Z,2.60
2019-05-06T11:28:25.774Z,2.43
2019-05-06T11:31:14.079Z,3.83
2019-05-06T11:33:50.128Z,3.20
2019-05-06T11:36:32.321Z,2.63
2019-05-06T11:39:01.956Z,4.37
2019-05-06T11:41:33.419Z,3.00
2019-05-06T11:44:03.428Z,4.13
2019-05-06T11:46:33.405Z,3.13
2019-05-06T11:49:03.404Z,3.07
2019-05-06T11:51:33.483Z,3.07
2019-05-06T11:54:16.392Z,3.00
2019-05-06T11:56:47.892Z,3.13
2019-05-06T11:59:08.590Z,2.63
2019-05-06T12:01:43.462Z,2.70
2019-05-06T12:04:14.089Z,3.53
2019-05-06T12:06:44.094Z,3.53
2019-05-06T12:09:17.015Z,4.50
2019-05-06T12:11:45.825Z,2.23
2019-05-06T12:14:15.737Z,3.50
2019-05-06T12:16:45.725Z,3.13
2019-05-06T12:19:15.684Z,2.57
2019-05-06T12:21:45.613Z,3.00
2019-05-06T12:24:15.573Z,2.83
2019-05-06T12:26:45.383Z,4.27
2019-05-06T12:29:15.360Z,4.13
2019-05-06T12:31:48.657Z,2.43
2019-05-06T12:34:18.555Z,4.97
2019-05-06T12:36:52.731Z,3.60
2019-05-06T12:39:26.534Z,2.90
2019-05-06T12:42:11.992Z,3.20
2019-05-06T12:44:45.767Z,3.33
2019-05-06T12:47:43.895Z,3.17
2019-05-06T12:50:14.281Z,2.93
2019-05-06T12:52:44.437Z,2.90
2019-05-06T12:55:21.403Z,3.77
2019-05-06T12:57:46.325Z,2.90
2019-05-06T13:00:16.397Z,3.23
2019-05-06T13:02:46.255Z,5.20
2019-05-06T13:05:19.449Z,4.00
2019-05-06T13:07:49.427Z,2.83
2019-05-06T13:10:23.137Z,3.37
2019-05-06T13:13:04.340Z,3.53
2019-05-06T13:15:34.237Z,2.80
2019-05-06T13:18:07.132Z,3.07
2019-05-06T13:20:36.927Z,3.43
2019-05-06T13:23:17.189Z,3.50
2019-05-06T13:25:45.455Z,3.07
2019-05-06T13:28:16.853Z,3.43
2019-05-06T13:30:46.762Z,3.53
2019-05-06T13:33:38.852Z,4.00
2019-05-06T13:36:09.017Z,3.00
2019-05-06T13:38:38.907Z,5.10
2019-05-06T13:41:08.935Z,3.60
2019-05-06T13:43:43.673Z,3.03
2019-05-06T13:46:28.713Z,3.57
2019-05-06T13:49:16.488Z,3.30
2019-05-06T13:51:55.270Z,3.40
2019-05-06T13:54:25.236Z,3.23
2019-05-06T13:56:55.131Z,3.57
2019-05-06T13:59:29.663Z,4.10
2019-05-06T14:02:24.975Z,3.20
2019-05-06T14:04:56.007Z,4.13
2019-05-06T14:07:26.011Z,3.10
2019-05-06T14:09:55.946Z,3.50
2019-05-06T14:12:25.868Z,3.07
2019-05-06T14:14:55.784Z,3.90
2019-05-06T14:17:25.787Z,4.60
2019-05-06T14:19:55.615Z,6.07
2019-05-06T14:22:25.655Z,3.03
2019-05-06T14:25:02.261Z,2.90
2019-05-06T14:27:32.783Z,3.17
2019-05-06T14:30:09.129Z,3.10
2019-05-06T14:32:38.997Z,3.33
2019-05-06T14:35:09.028Z,4.23
2019-05-06T14:37:38.996Z,3.63
2019-05-06T14:40:11.873Z,2.87
2019-05-06T14:42:42.419Z,3.27
2019-05-06T14:45:14.732Z,3.93
2019-05-06T14:47:44.200Z,2.77
2019-05-06T14:50:14.952Z,3.23
2019-05-06T14:52:44.910Z,4.67
2019-05-06T14:55:23.206Z,5.77
2019-05-06T14:57:54.177Z,3.70
2019-05-06T15:00:24.164Z,3.70
2019-05-06T15:02:54.008Z,3.50
2019-05-06T15:05:24.007Z,3.23
2019-05-06T15:07:53.979Z,3.27
2019-05-06T15:10:26.515Z,3.13
2019-05-06T15:12:55.502Z,2.47
2019-05-06T15:15:25.450Z,3.30
2019-05-06T15:17:55.392Z,4.00
2019-05-06T15:20:25.525Z,4.53
2019-05-06T15:22:55.507Z,3.10
2019-05-06T15:25:25.384Z,3.83
2019-05-06T15:27:55.398Z,4.03
2019-05-06T15:30:34.171Z,4.20
2019-05-06T15:33:05.123Z,3.77
2019-05-06T15:35:53.165Z,3.37
2019-05-06T15:38:25.854Z,2.93
2019-05-06T15:40:55.856Z,3.20
2019-05-06T15:43:25.683Z,4.07
2019-05-06T15:45:55.749Z,3.03
2019-05-06T15:48:25.733Z,3.63
2019-05-06T15:50:55.781Z,4.40
2019-05-06T15:53:25.753Z,2.93
2019-05-06T15:55:55.742Z,3.73
2019-05-06T15:58:25.668Z,4.80
2019-05-06T16:00:55.572Z,3.70
2019-05-06T16:03:25.463Z,2.70
2019-05-06T16:05:55.477Z,4.97
2019-05-06T16:08:25.345Z,2.80
2019-05-06T16:10:58.658Z,4.83
2019-05-06T16:13:26.773Z,3.03
2019-05-06T16:15:56.587Z,4.83
2019-05-06T16:18:27.388Z,3.70
2019-05-06T16:20:58.435Z,4.80
2019-05-06T16:23:42.282Z,3.37
2019-05-06T16:26:13.431Z,3.10
2019-05-06T16:28:45.077Z,2.90
2019-05-06T16:31:15.133Z,5.13
2019-05-06T16:33:45.129Z,4.53
2019-05-06T16:36:16.071Z,4.20
2019-05-06T16:38:46.043Z,3.90
2019-05-06T16:41:16.445Z,3.20
2019-05-06T16:43:46.507Z,3.30
2019-05-06T16:46:16.580Z,3.47
2019-05-06T16:48:46.605Z,3.63
2019-05-06T16:51:19.338Z,3.07
2019-05-06T16:53:49.366Z,3.53
2019-05-06T16:56:25.425Z,3.47
2019-05-06T16:58:58.080Z,4.77
2019-05-06T17:01:27.923Z,3.73
2019-05-06T17:04:04.363Z,6.53
2019-05-06T17:06:36.348Z,4.30
2019-05-06T17:09:20.123Z,6.73
2019-05-06T17:11:42.497Z,4.40
2019-05-06T17:14:12.346Z,5.70
2019-05-06T17:16:43.540Z,4.37
2019-05-06T17:19:13.457Z,5.77
2019-05-06T17:21:43.369Z,5.17
2019-05-06T17:24:13.298Z,4.57
2019-05-06T17:26:43.343Z,4.50
2019-05-06T17:29:32.710Z,5.23
2019-05-06T17:32:11.879Z,6.13
2019-05-06T17:34:44.488Z,6.63
2019-05-06T17:37:32.978Z,4.97
2019-05-06T17:40:08.063Z,8.13
2019-05-06T17:42:34.755Z,8.10
2019-05-06T17:45:24.900Z,8.20
2019-05-06T17:47:59.377Z,8.60
2019-05-06T17:50:29.294Z,6.30
2019-05-06T17:52:59.198Z,8.50
2019-05-06T17:55:29.096Z,9.67
2019-05-06T17:57:58.985Z,7.93
2019-05-06T18:00:28.975Z,7.40
2019-05-06T18:02:58.865Z,9.47
2019-05-06T18:05:28.782Z,7.63
2019-05-06T18:07:58.699Z,7.30
2019-05-06T18:10:28.623Z,8.10
2019-05-06T18:12:58.522Z,11.67
2019-05-06T18:15:29.350Z,8.20
2019-05-06T18:18:02.171Z,9.00
2019-05-06T18:20:33.555Z,9.50
2019-05-06T18:23:03.876Z,8.57
2019-05-06T18:25:33.766Z,8.70
2019-05-06T18:28:03.814Z,9.57
2019-05-06T18:30:37.035Z,9.13
2019-05-06T18:33:05.779Z,7.07
2019-05-06T18:35:35.714Z,12.67
2019-05-06T18:38:05.888Z,8.00
2019-05-06T18:40:35.737Z,11.00
2019-05-06T18:43:05.805Z,11.27
2019-05-06T18:45:35.989Z,9.30
2019-05-06T18:48:05.994Z,8.17
2019-05-06T18:50:36.008Z,7.07
2019-05-06T18:53:05.978Z,8.77
2019-05-06T18:55:35.967Z,9.00
2019-05-06T18:58:05.949Z,11.70
2019-05-06T19:00:35.914Z,8.13
2019-05-06T19:03:05.887Z,10.13
2019-05-06T19:05:37.543Z,12.03
2019-05-06T19:08:24.446Z,9.50
2019-05-06T19:10:54.268Z,9.47
2019-05-06T19:13:24.192Z,9.07
2019-05-06T19:15:54.026Z,8.30
2019-05-06T19:18:23.933Z,9.47
2019-05-06T19:20:53.938Z,8.17
2019-05-06T19:23:23.847Z,9.70
2019-05-06T19:25:54.827Z,9.90
2019-05-06T19:28:24.755Z,10.90
2019-05-06T19:30:54.786Z,9.60
2019-05-06T19:33:24.854Z,9.17
2019-05-06T19:35:54.731Z,9.43
2019-05-06T19:38:24.746Z,8.20
2019-05-06T19:40:54.601Z,8.77
2019-05-06T19:43:24.530Z,7.40
2019-05-06T19:45:54.534Z,6.90
2019-05-06T19:48:24.700Z,8.90
2019-05-06T19:50:54.655Z,7.57
2019-05-06T19:53:24.619Z,6.20
2019-05-06T19:55:54.529Z,10.13
2019-05-06T19:58:24.356Z,8.03
2019-05-06T20:00:56.406Z,8.57
2019-05-06T20:03:26.220Z,6.97
2019-05-06T20:06:33.311Z,7.17
2019-05-06T20:09:24.187Z,8.57
2019-05-06T20:11:56.550Z,9.37
2019-05-06T20:14:26.453Z,8.30
2019-05-06T20:16:56.461Z,7.80
2019-05-06T20:19:30.645Z,9.47
2019-05-06T20:21:57.963Z,8.97
2019-05-06T20:24:27.853Z,8.93
2019-05-06T20:26:57.754Z,7.50
2019-05-06T20:29:27.747Z,7.30
2019-05-06T20:31:57.715Z,8.07
2019-05-06T20:34:27.529Z,6.70
2019-05-06T20:36:57.415Z,6.63
2019-05-06T20:39:27.314Z,7.93
2019-05-06T20:41:57.298Z,8.83
2019-05-06T20:44:27.130Z,7.47
2019-05-06T20:46:57.130Z,7.90
2019-05-06T20:49:27.105Z,7.67
2019-05-06T20:51:56.990Z,8.17
2019-05-06T20:54:26.922Z,6.03
2019-05-06T20:56:56.864Z,6.70
2019-05-06T20:59:26.774Z,8.37
2019-05-06T21:01:56.762Z,9.03
2019-05-06T21:04:26.653Z,8.60
2019-05-06T21:06:56.545Z,6.20
2019-05-06T21:09:26.453Z,6.93
2019-05-06T21:11:56.354Z,8.43
2019-05-06T21:14:26.335Z,5.77
2019-05-06T21:16:56.235Z,8.03
2019-05-06T21:19:26.143Z,5.80
2019-05-06T21:21:56.094Z,8.20
2019-05-06T21:24:26.068Z,8.30
2019-05-06T21:26:56.033Z,7.00
2019-05-06T21:29:26.033Z,5.00
2019-05-06T21:31:56.216Z,7.13
2019-05-06T21:34:26.319Z,5.43
2019-05-06T21:36:56.335Z,5.70
2019-05-06T21:39:26.263Z,5.43
2019-05-06T21:41:56.329Z,5.37
2019-05-06T21:44:26.193Z,6.20
2019-05-06T21:46:56.094Z,6.63
2019-05-06T21:49:25.953Z,6.13
2019-05-06T21:51:55.875Z,9.33
2019-05-06T21:54:25.711Z,5.10
2019-05-06T21:56:55.677Z,5.43
2019-05-06T21:59:25.656Z,9.47
2019-05-06T22:01:55.635Z,5.20
2019-05-06T22:04:25.615Z,6.47
2019-05-06T22:06:55.538Z,5.70
2019-05-06T22:09:25.375Z,5.23
2019-05-06T22:11:55.290Z,6.23
2019-05-06T22:14:25.298Z,8.57
2019-05-06T22:16:55.119Z,6.90
2019-05-06T22:19:25.109Z,7.20
2019-05-06T22:22:06.171Z,5.87
2019-05-06T22:24:46.517Z,5.93
2019-05-06T22:27:16.982Z,7.90
2019-05-06T22:29:47.168Z,6.27
2019-05-06T22:32:17.162Z,6.97
2019-05-06T22:34:47.072Z,6.00
2019-05-06T22:37:16.967Z,5.53
2019-05-06T22:39:46.983Z,6.77
2019-05-06T22:42:16.878Z,8.13
2019-05-06T22:44:46.708Z,8.33
2019-05-06T22:47:17.750Z,6.33
2019-05-06T22:49:47.721Z,7.10
2019-05-06T22:52:17.534Z,4.63
2019-05-06T22:54:47.470Z,7.80
2019-05-06T22:57:17.366Z,4.70
2019-05-06T22:59:47.188Z,5.00
2019-05-06T23:02:32.443Z,5.27
2019-05-06T23:05:04.516Z,6.13
2019-05-06T23:07:34.323Z,5.77
2019-05-06T23:10:04.976Z,5.23
2019-05-06T23:12:35.081Z,3.80
2019-05-06T23:15:06.245Z,4.60
2019-05-06T23:17:36.110Z,5.13
2019-05-06T23:20:06.469Z,7.30
2019-05-06T23:22:36.287Z,4.70
2019-05-06T23:25:06.516Z,5.10
2019-05-06T23:27:36.337Z,4.27
2019-05-06T23:30:07.084Z,3.57
2019-05-06T23:32:36.987Z,4.97
2019-05-06T23:35:07.281Z,4.20
2019-05-06T23:38:13.453Z,5.10
2019-05-06T23:41:21.808Z,4.57
2019-05-06T23:44:27.698Z,4.23
2019-05-06T23:47:34.380Z,4.03
2019-05-06T23:50:42.702Z,4.80
2019-05-06T23:53:48.021Z,4.30
2019-05-06T23:56:44.990Z,5.03
2019-05-06T23:59:16.080Z,3.97
